createdAt,value
2022-09-23T00:00:18.003Z,19.72
2022-09-23T00:01:48.038Z,19.62
2022-09-23T00:02:56.204Z,19.78
2022-09-23T00:04:05.629Z,19.57
2022-09-23T00:05:13.778Z,19.72
2022-09-23T00:06:24.213Z,20.12
2022-09-23T00:07:34.586Z,20.42
2022-09-23T00:08:43.614Z,20.39
2022-09-23T00:09:52.975Z,20.59
2022-09-23T00:11:13.522Z,20.94
2022-09-23T00:12:22.428Z,20.87
2022-09-23T00:13:31.354Z,20.77
2022-09-23T00:14:42.130Z,20.83
2022-09-23T00:15:51.039Z,21.18
2022-09-23T00:17:02.661Z,21.11
2022-09-23T00:18:11.010Z,21.02
2022-09-23T00:19:20.716Z,21.36
2022-09-23T00:20:30.056Z,21.34
2022-09-23T00:21:38.844Z,21.36
2022-09-23T00:22:47.168Z,21.18
2022-09-23T00:23:55.194Z,20.94
2022-09-23T00:25:03.682Z,21.01
2022-09-23T00:26:12.136Z,20.91
2022-09-23T00:27:23.591Z,20.84
2022-09-23T00:28:35.673Z,20.97
2022-09-23T00:29:44.465Z,21.20
2022-09-23T00:30:54.225Z,21.33
2022-09-23T00:32:02.525Z,21.33
2022-09-23T00:33:11.612Z,21.50
2022-09-23T00:34:20.422Z,21.39
2022-09-23T00:35:31.195Z,21.40
2022-09-23T00:36:40.369Z,21.23
2022-09-23T00:37:50.677Z,21.18
2022-09-23T00:39:04.163Z,21.18
2022-09-23T00:40:15.253Z,21.21
2022-09-23T00:41:24.419Z,21.30
2022-09-23T00:42:35.048Z,21.36
2022-09-23T00:44:29.825Z,21.64
2022-09-23T00:45:39.146Z,21.47
2022-09-23T00:46:47.655Z,21.34
2022-09-23T00:48:04.944Z,21.18
2022-09-23T00:49:27.726Z,21.46
2022-09-23T00:50:48.003Z,21.57
2022-09-23T00:52:01.297Z,21.42
2022-09-23T00:53:11.938Z,21.45
2022-09-23T00:54:20.188Z,21.29
2022-09-23T00:55:35.665Z,21.22
2022-09-23T00:56:47.775Z,21.16
2022-09-23T00:57:58.565Z,21.19
2022-09-23T00:59:10.419Z,21.33
2022-09-23T01:00:18.495Z,21.52
2022-09-23T01:01:27.677Z,21.69
2022-09-23T01:02:37.055Z,21.60
2022-09-23T01:03:47.126Z,21.86
2022-09-23T01:04:55.235Z,22.00
2022-09-23T01:06:07.184Z,22.21
2022-09-23T01:07:15.264Z,22.40
2022-09-23T01:08:26.091Z,22.49
2022-09-23T01:09:34.622Z,22.53
2022-09-23T01:11:07.434Z,22.56
2022-09-23T01:12:21.475Z,22.65
2022-09-23T01:14:08.557Z,22.85
2022-09-23T01:15:18.275Z,23.17
2022-09-23T01:16:41.755Z,23.26
2022-09-23T01:18:03.557Z,23.42
2022-09-23T01:19:39.504Z,23.60
2022-09-23T01:21:01.061Z,23.89
2022-09-23T01:22:30.957Z,23.99
2022-09-23T01:24:07.955Z,24.24
2022-09-23T01:25:55.767Z,24.46
2022-09-23T01:27:33.007Z,24.70
2022-09-23T01:29:05.579Z,24.98
2022-09-23T01:30:49.932Z,25.16
2022-09-23T01:32:21.529Z,25.21
2022-09-23T01:33:37.048Z,25.44
2022-09-23T01:34:50.284Z,25.72
2022-09-23T01:36:11.922Z,25.84
2022-09-23T01:37:45.765Z,25.98
2022-09-23T01:39:00.197Z,26.33
2022-09-23T01:40:23.398Z,26.26
2022-09-23T01:42:02.749Z,26.35
2022-09-23T01:43:11.694Z,26.63
2022-09-23T01:44:31.773Z,26.68
2022-09-23T01:45:49.124Z,26.91
2022-09-23T01:47:12.243Z,27.08
2022-09-23T01:48:39.127Z,27.27
2022-09-23T01:50:03.488Z,27.41
2022-09-23T01:51:36.128Z,27.69
2022-09-23T01:52:49.039Z,27.87
2022-09-23T01:54:22.829Z,28.25
2022-09-23T01:55:39.959Z,28.71
2022-09-23T01:56:54.004Z,28.57
2022-09-23T01:58:19.916Z,28.81
2022-09-23T01:59:54.394Z,28.98
2022-09-23T02:01:05.575Z,29.27
2022-09-23T02:02:45.889Z,29.39
2022-09-23T02:04:24.129Z,29.63
2022-09-23T02:05:40.682Z,29.99
2022-09-23T02:06:55.078Z,30.45
2022-09-23T02:08:19.206Z,30.47
2022-09-23T02:09:30.250Z,30.77
2022-09-23T02:11:06.157Z,31.29
2022-09-23T02:12:19.165Z,31.41
2022-09-23T02:13:58.646Z,31.43
2022-09-23T02:15:18.059Z,31.78
2022-09-23T02:16:53.741Z,32.23
2022-09-23T02:18:11.779Z,32.70
2022-09-23T02:19:52.686Z,32.76
2022-09-23T02:21:06.752Z,33.20
2022-09-23T02:22:45.139Z,33.22
2022-09-23T02:23:57.525Z,33.73
2022-09-23T02:25:06.083Z,33.74
2022-09-23T02:26:40.719Z,33.78
2022-09-23T02:27:59.765Z,33.41
2022-09-23T02:29:55.018Z,34.14
2022-09-23T02:31:48.251Z,34.74
2022-09-23T02:33:20.672Z,35.19
2022-09-23T02:35:05.255Z,35.67
2022-09-23T02:36:34.023Z,36.42
2022-09-23T02:37:54.901Z,36.57
2022-09-23T02:39:06.726Z,36.80
2022-09-23T02:41:01.811Z,36.62
2022-09-23T02:42:12.724Z,37.11
2022-09-23T02:43:31.779Z,37.84
2022-09-23T02:44:43.192Z,38.06
2022-09-23T02:45:51.926Z,37.90
2022-09-23T02:47:00.724Z,38.17
2022-09-23T02:48:23.331Z,38.23
2022-09-23T02:49:34.179Z,37.94
2022-09-23T02:50:45.835Z,37.74
2022-09-23T02:51:56.646Z,37.94
2022-09-23T02:53:06.157Z,37.95
2022-09-23T02:54:17.253Z,38.05
2022-09-23T02:55:26.251Z,38.54
2022-09-23T02:56:37.664Z,38.49
2022-09-23T02:57:49.877Z,38.34
2022-09-23T02:58:57.738Z,38.45
2022-09-23T03:00:09.886Z,38.49
2022-09-23T03:01:49.228Z,38.61
2022-09-23T03:03:20.739Z,38.89
2022-09-23T03:05:00.422Z,38.85
2022-09-23T03:06:31.877Z,39.52
2022-09-23T03:07:52.007Z,39.53
2022-09-23T03:09:12.467Z,39.73
2022-09-23T03:10:46.082Z,40.42
2022-09-23T03:12:00.228Z,40.47
2022-09-23T03:13:25.051Z,39.99
2022-09-23T03:15:00.565Z,39.99
2022-09-23T03:16:18.129Z,40.00
2022-09-23T03:18:11.141Z,40.16
2022-09-23T03:19:24.692Z,40.58
2022-09-23T03:20:36.837Z,41.00
2022-09-23T03:22:07.915Z,41.04
2022-09-23T03:23:16.975Z,41.03
2022-09-23T03:24:25.933Z,40.78
2022-09-23T03:25:35.336Z,40.71
2022-09-23T03:26:45.051Z,40.86
2022-09-23T03:27:58.631Z,40.73
2022-09-23T03:29:12.818Z,40.97
2022-09-23T03:30:23.474Z,40.93
2022-09-23T03:31:35.499Z,40.98
2022-09-23T03:32:50.546Z,41.24
2022-09-23T03:33:59.568Z,41.50
2022-09-23T03:35:08.225Z,41.43
2022-09-23T03:36:35.763Z,41.31
2022-09-23T03:37:47.539Z,41.41
2022-09-23T03:39:03.694Z,41.55
2022-09-23T03:40:30.856Z,41.72
2022-09-23T03:41:52.529Z,42.05
2022-09-23T03:43:06.020Z,42.20
2022-09-23T03:44:14.855Z,41.92
2022-09-23T03:45:35.752Z,41.91
2022-09-23T03:46:51.597Z,41.94
2022-09-23T03:48:02.838Z,42.34
2022-09-23T03:49:29.660Z,42.05
2022-09-23T03:50:41.186Z,42.18
2022-09-23T03:51:50.522Z,42.09
2022-09-23T03:53:02.868Z,42.38
2022-09-23T03:54:11.532Z,42.47
2022-09-23T03:55:21.368Z,42.60
2022-09-23T03:56:30.036Z,42.63
2022-09-23T03:57:39.101Z,42.67
2022-09-23T03:58:48.823Z,43.10
2022-09-23T04:00:00.881Z,43.12
2022-09-23T04:01:22.961Z,43.17
2022-09-23T04:02:32.320Z,43.00
2022-09-23T04:03:43.166Z,43.03
2022-09-23T04:04:53.396Z,43.15
2022-09-23T04:06:03.481Z,43.64
2022-09-23T04:07:12.407Z,43.37
2022-09-23T04:08:20.448Z,43.20
2022-09-23T04:09:30.736Z,43.29
2022-09-23T04:10:42.814Z,43.47
2022-09-23T04:11:52.769Z,43.51
2022-09-23T04:13:00.555Z,43.51
2022-09-23T04:14:09.914Z,43.94
2022-09-23T04:15:17.676Z,44.05
2022-09-23T04:16:26.787Z,44.05
2022-09-23T04:17:35.037Z,43.99
2022-09-23T04:18:44.686Z,43.92
2022-09-23T04:19:55.943Z,44.06
2022-09-23T04:21:05.611Z,44.25
2022-09-23T04:22:13.789Z,44.29
2022-09-23T04:23:22.963Z,44.20
2022-09-23T04:24:34.564Z,44.38
2022-09-23T04:25:52.760Z,44.45
2022-09-23T04:27:03.880Z,44.53
2022-09-23T04:28:12.482Z,44.67
2022-09-23T04:29:20.232Z,44.71
2022-09-23T04:30:28.719Z,44.53
2022-09-23T04:31:38.618Z,44.51
2022-09-23T04:32:49.775Z,44.63
2022-09-23T04:33:58.081Z,44.61
2022-09-23T04:35:07.252Z,44.60
2022-09-23T04:36:15.065Z,44.56
2022-09-23T04:37:23.592Z,44.63
2022-09-23T04:38:37.927Z,44.60
2022-09-23T04:39:46.292Z,44.37
2022-09-23T04:40:55.234Z,44.42
2022-09-23T04:42:03.575Z,44.56
2022-09-23T04:43:13.541Z,45.01
2022-09-23T04:44:29.951Z,45.45
2022-09-23T04:45:38.695Z,46.09
2022-09-23T04:46:51.013Z,46.02
2022-09-23T04:48:00.416Z,45.82
2022-09-23T04:49:09.330Z,45.69
2022-09-23T04:50:18.244Z,46.01
2022-09-23T04:51:28.215Z,46.41
2022-09-23T04:52:37.197Z,46.75
2022-09-23T04:53:48.466Z,46.82
2022-09-23T04:54:59.713Z,46.95
2022-09-23T04:56:15.755Z,47.16
2022-09-23T04:57:25.981Z,46.97
2022-09-23T04:58:36.125Z,47.22
2022-09-23T04:59:47.345Z,47.44
2022-09-23T05:01:02.992Z,47.81
2022-09-23T05:02:14.961Z,47.82
2022-09-23T05:03:25.764Z,48.16
2022-09-23T05:04:35.539Z,47.92
2022-09-23T05:05:48.533Z,47.87
2022-09-23T05:07:02.244Z,47.66
2022-09-23T05:08:16.219Z,48.09
2022-09-23T05:09:26.398Z,48.36
2022-09-23T05:10:36.808Z,48.60
2022-09-23T05:11:46.878Z,48.89
2022-09-23T05:12:59.286Z,48.88
2022-09-23T05:14:07.180Z,48.75
2022-09-23T05:15:18.022Z,48.63
2022-09-23T05:16:27.017Z,48.81
2022-09-23T05:17:35.551Z,48.97
2022-09-23T05:18:45.788Z,49.02
2022-09-23T05:19:55.873Z,49.07
2022-09-23T05:21:05.980Z,48.98
2022-09-23T05:22:13.692Z,48.77
2022-09-23T05:23:24.202Z,48.68
2022-09-23T05:24:34.786Z,48.79
2022-09-23T05:25:44.324Z,49.01
2022-09-23T05:26:53.904Z,49.29
2022-09-23T05:28:02.932Z,49.99
2022-09-23T05:29:10.903Z,50.39
2022-09-23T05:30:18.636Z,50.41
2022-09-23T05:31:29.529Z,50.55
2022-09-23T05:32:39.216Z,50.42
2022-09-23T05:33:53.655Z,50.22
2022-09-23T05:35:01.150Z,50.25
2022-09-23T05:36:10.229Z,50.22
2022-09-23T05:37:18.612Z,50.67
2022-09-23T05:38:27.981Z,51.13
2022-09-23T05:39:36.332Z,51.01
2022-09-23T05:40:45.612Z,51.04
2022-09-23T05:41:57.564Z,51.30
2022-09-23T05:43:06.869Z,51.56
2022-09-23T05:44:15.288Z,51.73
2022-09-23T05:45:25.480Z,51.71
2022-09-23T05:46:36.171Z,51.62
2022-09-23T05:47:45.653Z,51.56
2022-09-23T05:48:56.781Z,51.48
2022-09-23T05:50:10.251Z,51.44
2022-09-23T05:51:30.654Z,51.59
2022-09-23T05:52:43.297Z,51.88
2022-09-23T05:53:54.642Z,52.13
2022-09-23T05:55:03.373Z,52.55
2022-09-23T05:56:11.965Z,52.67
2022-09-23T05:57:21.991Z,52.94
2022-09-23T05:58:30.420Z,52.87
2022-09-23T05:59:39.871Z,52.88
2022-09-23T06:00:51.590Z,52.83
2022-09-23T06:02:00.309Z,53.02
2022-09-23T06:03:22.089Z,53.21
2022-09-23T06:04:32.790Z,53.25
2022-09-23T06:05:42.188Z,52.99
2022-09-23T06:06:53.258Z,52.88
2022-09-23T06:08:03.006Z,53.17
2022-09-23T06:09:14.699Z,53.24
2022-09-23T06:10:26.362Z,53.27
2022-09-23T06:11:36.071Z,53.19
2022-09-23T06:12:46.796Z,53.16
2022-09-23T06:14:04.952Z,53.30
2022-09-23T06:15:13.620Z,53.67
2022-09-23T06:16:23.674Z,53.79
2022-09-23T06:17:33.945Z,53.66
2022-09-23T06:18:43.902Z,53.58
2022-09-23T06:19:52.972Z,53.59
2022-09-23T06:21:03.763Z,53.66
2022-09-23T06:22:13.811Z,53.55
2022-09-23T06:23:25.590Z,53.68
2022-09-23T06:24:36.430Z,53.66
2022-09-23T06:25:48.597Z,53.61
2022-09-23T06:26:57.250Z,53.61
2022-09-23T06:28:06.026Z,53.72
2022-09-23T06:29:14.024Z,53.74
2022-09-23T06:30:21.593Z,53.81
2022-09-23T06:31:30.869Z,53.88
2022-09-23T06:32:39.559Z,53.84
2022-09-23T06:33:48.979Z,53.90
2022-09-23T06:34:57.965Z,53.90
2022-09-23T06:36:09.211Z,54.11
2022-09-23T06:37:20.262Z,54.02
2022-09-23T06:38:29.924Z,54.15
2022-09-23T06:39:40.549Z,54.17
2022-09-23T06:40:55.886Z,54.16
2022-09-23T06:42:09.024Z,54.21
2022-09-23T06:43:17.726Z,54.29
2022-09-23T06:44:25.693Z,54.20
2022-09-23T06:45:34.792Z,54.30
2022-09-23T06:46:44.246Z,54.47
2022-09-23T06:48:00.068Z,54.68
2022-09-23T06:49:08.658Z,54.54
2022-09-23T06:50:17.089Z,54.58
2022-09-23T06:51:29.426Z,54.66
2022-09-23T06:52:38.035Z,54.75
2022-09-23T06:53:47.525Z,54.90
2022-09-23T06:54:56.280Z,55.12
2022-09-23T06:56:09.191Z,55.22
2022-09-23T06:57:17.517Z,55.35
2022-09-23T06:58:28.450Z,55.44
2022-09-23T06:59:38.619Z,55.53
2022-09-23T07:00:49.638Z,55.60
2022-09-23T07:01:59.372Z,55.70
2022-09-23T07:03:11.471Z,55.97
2022-09-23T07:04:19.219Z,56.14
2022-09-23T07:05:27.741Z,56.15
2022-09-23T07:06:37.553Z,56.22
2022-09-23T07:07:49.719Z,56.45
2022-09-23T07:08:58.589Z,56.64
2022-09-23T07:10:08.394Z,56.85
2022-09-23T07:11:17.639Z,56.97
2022-09-23T07:12:27.416Z,57.06
2022-09-23T07:13:39.026Z,57.11
2022-09-23T07:14:49.253Z,57.41
2022-09-23T07:16:00.432Z,57.78
2022-09-23T07:17:08.933Z,58.30
2022-09-23T07:18:20.525Z,58.64
2022-09-23T07:19:29.446Z,58.54
2022-09-23T07:20:40.903Z,58.37
2022-09-23T07:21:51.452Z,58.11
2022-09-23T07:22:59.991Z,57.83
2022-09-23T07:24:10.732Z,57.81
2022-09-23T07:25:19.827Z,57.63
2022-09-23T07:26:29.049Z,57.58
2022-09-23T07:27:38.087Z,57.51
2022-09-23T07:28:47.537Z,57.54
2022-09-23T07:29:58.061Z,57.49
2022-09-23T07:31:08.539Z,57.35
2022-09-23T07:32:20.153Z,57.29
2022-09-23T07:33:32.777Z,57.23
2022-09-23T07:34:48.859Z,57.23
2022-09-23T07:36:00.158Z,57.13
2022-09-23T07:37:08.650Z,57.11
2022-09-23T07:38:18.128Z,57.08
2022-09-23T07:39:28.948Z,57.24
2022-09-23T07:40:37.721Z,57.12
2022-09-23T07:41:49.837Z,57.25
2022-09-23T07:42:58.052Z,57.43
2022-09-23T07:44:07.655Z,57.51
2022-09-23T07:45:16.601Z,57.56
2022-09-23T07:46:25.515Z,57.50
2022-09-23T07:47:34.261Z,57.42
2022-09-23T07:48:43.147Z,57.42
2022-09-23T07:49:55.865Z,57.53
2022-09-23T07:51:25.298Z,57.54
2022-09-23T07:52:34.670Z,57.45
2022-09-23T07:53:44.045Z,57.53
2022-09-23T07:54:53.754Z,57.59
2022-09-23T07:56:07.682Z,57.64
2022-09-23T07:57:15.905Z,57.82
2022-09-23T07:58:27.514Z,57.79
2022-09-23T07:59:37.922Z,57.91
2022-09-23T08:00:46.632Z,58.14
2022-09-23T08:01:56.046Z,58.30
2022-09-23T08:03:04.335Z,58.49
2022-09-23T08:04:25.549Z,58.51
2022-09-23T08:05:34.274Z,58.63
2022-09-23T08:06:56.073Z,58.56
2022-09-23T08:08:09.102Z,58.74
2022-09-23T08:09:20.673Z,58.79
2022-09-23T08:10:32.301Z,59.16
2022-09-23T08:11:44.118Z,59.11
2022-09-23T08:12:54.659Z,59.21
2022-09-23T08:14:06.085Z,59.18
2022-09-23T08:15:15.670Z,59.22
2022-09-23T08:16:23.762Z,59.23
2022-09-23T08:17:35.237Z,59.31
2022-09-23T08:18:48.860Z,59.34
2022-09-23T08:20:02.465Z,59.34
2022-09-23T08:21:11.716Z,59.46
2022-09-23T08:22:21.730Z,59.52
2022-09-23T08:23:35.695Z,59.63
2022-09-23T08:24:45.933Z,59.80
2022-09-23T08:26:01.777Z,59.81
2022-09-23T08:27:09.913Z,59.85
2022-09-23T08:28:21.349Z,59.88
2022-09-23T08:29:30.980Z,60.16
2022-09-23T08:30:42.117Z,60.37
2022-09-23T08:31:53.369Z,60.59
2022-09-23T08:33:04.191Z,60.74
2022-09-23T08:34:15.512Z,60.88
2022-09-23T08:35:24.061Z,61.18
2022-09-23T08:36:35.809Z,61.66
2022-09-23T08:37:47.405Z,61.73
2022-09-23T08:38:58.678Z,61.51
2022-09-23T08:40:10.527Z,61.41
2022-09-23T08:41:41.935Z,61.29
2022-09-23T08:42:52.047Z,61.16
2022-09-23T08:44:49.652Z,61.16
2022-09-23T08:46:05.011Z,61.18
2022-09-23T08:47:51.144Z,60.89
2022-09-23T08:49:00.654Z,60.92
2022-09-23T08:50:20.750Z,60.99
2022-09-23T08:51:33.953Z,61.24
2022-09-23T08:53:00.892Z,61.14
2022-09-23T08:54:12.992Z,61.17
2022-09-23T08:55:22.154Z,61.17
2022-09-23T08:56:30.884Z,61.05
2022-09-23T08:57:57.417Z,60.76
2022-09-23T08:59:34.707Z,60.39
2022-09-23T09:00:44.394Z,60.09
2022-09-23T09:02:18.492Z,59.81
2022-09-23T09:03:33.510Z,59.72
2022-09-23T09:04:44.752Z,59.74
2022-09-23T09:05:54.630Z,59.85
2022-09-23T09:08:40.603Z,59.90
2022-09-23T09:10:16.591Z,60.02
2022-09-23T09:11:26.584Z,59.82
2022-09-23T09:12:49.322Z,59.73
2022-09-23T09:14:31.495Z,59.61
2022-09-23T09:16:36.374Z,59.68
2022-09-23T09:18:13.206Z,59.82
2022-09-23T09:19:34.156Z,59.67
2022-09-23T09:20:49.121Z,59.56
2022-09-23T09:21:58.235Z,59.58
2022-09-23T09:23:25.910Z,59.77
2022-09-23T09:24:38.390Z,60.06
2022-09-23T09:25:51.815Z,60.41
2022-09-23T09:27:00.204Z,60.57
2022-09-23T09:28:37.686Z,60.72
2022-09-23T09:29:49.924Z,60.64
2022-09-23T09:31:29.619Z,60.63
2022-09-23T09:32:48.758Z,60.51
2022-09-23T09:34:07.348Z,60.40
2022-09-23T09:35:39.854Z,60.07
2022-09-23T09:37:08.463Z,59.81
2022-09-23T09:38:16.896Z,59.71
2022-09-23T09:39:26.400Z,59.52
2022-09-23T09:40:37.082Z,59.40
2022-09-23T09:41:52.294Z,59.31
2022-09-23T09:43:02.033Z,59.36
2022-09-23T09:44:23.318Z,59.35
2022-09-23T09:46:00.893Z,59.16
2022-09-23T09:47:33.861Z,59.24
2022-09-23T09:48:55.807Z,59.31
2022-09-23T09:50:19.142Z,59.51
2022-09-23T09:51:30.808Z,59.40
2022-09-23T09:52:42.434Z,59.50
2022-09-23T09:53:54.379Z,59.64
2022-09-23T09:55:19.399Z,59.95
2022-09-23T09:56:34.987Z,60.23
2022-09-23T09:58:07.306Z,60.23
2022-09-23T09:59:22.521Z,60.02
2022-09-23T10:00:38.515Z,59.97
2022-09-23T10:01:50.828Z,60.16
2022-09-23T10:03:00.726Z,60.19
2022-09-23T10:04:23.585Z,60.13
2022-09-23T10:05:52.717Z,60.11
2022-09-23T10:07:14.104Z,60.13
2022-09-23T10:08:31.662Z,60.34
2022-09-23T10:09:41.656Z,60.37
2022-09-23T10:11:03.716Z,60.29
2022-09-23T10:12:19.945Z,60.10
2022-09-23T10:13:29.429Z,60.11
2022-09-23T10:14:38.188Z,60.23
2022-09-23T10:15:48.132Z,60.15
2022-09-23T10:17:23.472Z,60.05
2022-09-23T10:18:55.220Z,60.18
2022-09-23T10:20:17.414Z,60.23
2022-09-23T10:21:30.750Z,60.38
2022-09-23T10:22:41.269Z,60.51
2022-09-23T10:23:55.422Z,60.63
2022-09-23T10:25:26.035Z,60.86
2022-09-23T10:26:48.754Z,60.88
2022-09-23T10:27:57.753Z,60.85
2022-09-23T10:29:22.013Z,60.91
2022-09-23T10:30:30.752Z,61.12
2022-09-23T10:31:40.249Z,61.04
2022-09-23T10:32:49.658Z,61.03
2022-09-23T10:34:02.537Z,61.13
2022-09-23T10:35:11.031Z,61.23
2022-09-23T10:36:20.762Z,61.18
2022-09-23T10:37:48.929Z,61.11
2022-09-23T10:39:29.202Z,61.28
2022-09-23T10:40:59.687Z,61.39
2022-09-23T10:43:10.515Z,61.42
2022-09-23T10:44:58.033Z,61.25
2022-09-23T10:46:54.344Z,61.29
2022-09-23T10:48:20.698Z,61.31
2022-09-23T10:49:43.200Z,61.32
2022-09-23T10:50:52.764Z,61.37
2022-09-23T10:52:33.793Z,61.85
2022-09-23T10:53:56.985Z,61.99
2022-09-23T10:55:14.150Z,61.90
2022-09-23T10:56:45.393Z,61.94
2022-09-23T10:58:25.227Z,61.87
2022-09-23T11:00:16.680Z,61.95
2022-09-23T11:01:40.262Z,61.92
2022-09-23T11:03:15.266Z,61.73
2022-09-23T11:05:01.393Z,61.58
2022-09-23T11:06:34.683Z,61.64
2022-09-23T11:08:19.587Z,61.74
2022-09-23T11:09:43.233Z,61.95
2022-09-23T11:11:16.264Z,61.88
2022-09-23T11:12:40.822Z,61.97
2022-09-23T11:14:18.754Z,61.97
2022-09-23T11:16:04.100Z,62.01
2022-09-23T11:17:16.889Z,62.96
2022-09-23T11:18:40.936Z,63.35
2022-09-23T11:19:52.783Z,63.19
2022-09-23T11:21:30.225Z,63.05
2022-09-23T11:22:45.754Z,62.93
2022-09-23T11:24:03.527Z,62.91
2022-09-23T11:25:25.669Z,63.05
2022-09-23T11:27:10.274Z,63.19
2022-09-23T11:28:41.737Z,63.26
2022-09-23T11:30:11.110Z,63.78
2022-09-23T11:31:59.675Z,64.26
2022-09-23T11:33:30.285Z,64.10
2022-09-23T11:34:48.897Z,64.09
2022-09-23T11:36:12.600Z,64.10
2022-09-23T11:37:30.313Z,64.07
2022-09-23T11:38:45.177Z,63.89
2022-09-23T11:40:10.448Z,63.75
2022-09-23T11:41:33.532Z,63.49
2022-09-23T11:42:49.601Z,63.26
2022-09-23T11:44:21.994Z,63.30
2022-09-23T11:45:34.941Z,63.15
2022-09-23T11:47:12.922Z,63.14
2022-09-23T11:49:01.497Z,63.08
2022-09-23T11:50:31.025Z,63.10
2022-09-23T11:52:03.267Z,63.12
2022-09-23T11:53:39.179Z,63.00
2022-09-23T11:55:20.260Z,63.05
2022-09-23T11:57:03.409Z,63.31
2022-09-23T11:58:38.167Z,63.66
2022-09-23T11:59:54.008Z,63.83
2022-09-23T12:01:08.795Z,63.82
2022-09-23T12:02:44.751Z,63.67
2022-09-23T12:04:25.798Z,63.60
2022-09-23T12:05:44.288Z,63.62
2022-09-23T12:07:07.093Z,63.73
2022-09-23T12:08:33.957Z,63.63
2022-09-23T12:10:03.756Z,63.99
2022-09-23T12:11:38.403Z,63.98
2022-09-23T12:13:29.311Z,63.69
2022-09-23T12:15:18.772Z,63.54
2022-09-23T12:17:10.245Z,63.78
2022-09-23T12:18:27.676Z,63.80
2022-09-23T12:19:54.095Z,63.53
2022-09-23T12:21:46.298Z,63.27
2022-09-23T12:23:17.165Z,63.15
2022-09-23T12:24:43.947Z,62.94
2022-09-23T12:25:59.367Z,62.86
2022-09-23T12:27:12.398Z,62.74
2022-09-23T12:28:21.110Z,62.82
2022-09-23T12:29:33.584Z,62.74
2022-09-23T12:30:41.858Z,62.68
2022-09-23T12:31:52.156Z,62.60
2022-09-23T12:33:11.647Z,62.63
2022-09-23T12:34:36.552Z,62.60
2022-09-23T12:35:46.971Z,62.59
2022-09-23T12:36:56.455Z,62.58
2022-09-23T12:38:04.754Z,62.64
2022-09-23T12:39:25.215Z,62.92
2022-09-23T12:40:38.679Z,62.85
2022-09-23T12:41:50.307Z,62.81
2022-09-23T12:43:02.350Z,62.45
2022-09-23T12:44:17.403Z,62.28
2022-09-23T12:45:37.151Z,62.49
2022-09-23T12:46:46.615Z,62.67
2022-09-23T12:47:57.645Z,62.69
2022-09-23T12:49:06.443Z,63.10
2022-09-23T12:51:04.464Z,63.12
2022-09-23T12:52:15.653Z,63.12
2022-09-23T12:53:43.215Z,63.43
2022-09-23T12:54:53.052Z,63.69
2022-09-23T12:56:24.779Z,63.55
2022-09-23T12:57:39.439Z,63.53
2022-09-23T12:58:50.842Z,63.53
2022-09-23T13:00:01.391Z,63.64
2022-09-23T13:01:26.640Z,63.74
2022-09-23T13:03:12.422Z,63.87
2022-09-23T13:05:16.120Z,63.70
2022-09-23T13:06:42.989Z,63.35
2022-09-23T13:07:53.725Z,63.32
2022-09-23T13:09:01.991Z,63.29
2022-09-23T13:11:01.833Z,63.30
2022-09-23T13:12:16.149Z,63.30
2022-09-23T13:13:44.763Z,63.15
2022-09-23T13:14:55.638Z,63.03
2022-09-23T13:16:22.808Z,63.05
2022-09-23T13:17:40.159Z,63.00
2022-09-23T13:19:29.778Z,62.83
2022-09-23T13:20:40.189Z,62.68
2022-09-23T13:21:48.647Z,62.70
2022-09-23T13:22:57.689Z,63.00
2022-09-23T13:24:24.213Z,62.94
2022-09-23T13:25:35.100Z,62.83
2022-09-23T13:26:55.494Z,62.87
2022-09-23T13:28:07.003Z,62.81
2022-09-23T13:29:35.143Z,62.62
2022-09-23T13:30:52.896Z,62.65
2022-09-23T13:32:04.661Z,62.65
2022-09-23T13:33:20.845Z,62.70
2022-09-23T13:34:34.825Z,62.69
2022-09-23T13:35:54.127Z,62.50
2022-09-23T13:37:44.710Z,62.51
2022-09-23T13:38:54.196Z,62.67
2022-09-23T13:40:33.625Z,62.69
2022-09-23T13:41:46.426Z,62.70
2022-09-23T13:43:20.006Z,62.69
2022-09-23T13:44:27.801Z,62.63
2022-09-23T13:45:39.836Z,62.68
2022-09-23T13:46:56.487Z,62.71
2022-09-23T13:48:09.924Z,62.77
2022-09-23T13:49:30.366Z,62.74
2022-09-23T13:50:44.098Z,62.59
2022-09-23T13:51:53.112Z,62.49
2022-09-23T13:53:03.258Z,62.33
2022-09-23T13:54:30.734Z,62.13
2022-09-23T13:55:40.870Z,62.10
2022-09-23T13:56:51.845Z,61.99
2022-09-23T13:58:16.217Z,61.91
2022-09-23T13:59:40.896Z,61.93
2022-09-23T14:00:53.043Z,61.81
2022-09-23T14:02:14.680Z,61.92
2022-09-23T14:03:38.851Z,61.96
2022-09-23T14:04:50.917Z,61.71
2022-09-23T14:06:04.997Z,61.14
2022-09-23T14:07:16.518Z,60.56
2022-09-23T14:08:24.328Z,59.75
2022-09-23T14:09:37.439Z,59.18
2022-09-23T14:10:47.689Z,58.13
2022-09-23T14:11:59.177Z,57.35
2022-09-23T14:13:07.092Z,56.51
2022-09-23T14:14:16.459Z,55.61
2022-09-23T14:15:24.281Z,55.13
2022-09-23T14:16:38.848Z,54.23
2022-09-23T14:18:04.918Z,53.83
2022-09-23T14:19:25.859Z,53.74
2022-09-23T14:20:34.054Z,53.02
2022-09-23T14:21:42.821Z,52.11
2022-09-23T14:23:05.561Z,51.57
2022-09-23T14:24:23.622Z,51.03
2022-09-23T14:25:32.929Z,51.16
2022-09-23T14:26:41.858Z,51.43
2022-09-23T14:27:51.184Z,51.50
2022-09-23T14:29:00.870Z,52.26
2022-09-23T14:30:16.972Z,52.53
2022-09-23T14:31:26.086Z,51.85
2022-09-23T14:32:37.239Z,51.28
2022-09-23T14:33:48.826Z,49.98
2022-09-23T14:35:04.843Z,50.14
2022-09-23T14:36:37.401Z,49.40
2022-09-23T14:38:07.057Z,47.52
2022-09-23T14:39:15.607Z,47.12
2022-09-23T14:40:41.194Z,45.58
2022-09-23T14:41:51.404Z,44.74
2022-09-23T14:43:30.889Z,43.70
2022-09-23T14:44:40.184Z,42.90
2022-09-23T14:46:00.278Z,41.34
2022-09-23T14:47:12.121Z,40.68
2022-09-23T14:48:33.460Z,40.98
2022-09-23T14:50:10.530Z,41.18
2022-09-23T14:51:18.492Z,41.50
2022-09-23T14:52:28.306Z,41.00
2022-09-23T14:53:44.092Z,40.50
2022-09-23T14:54:55.224Z,39.76
2022-09-23T14:56:21.942Z,38.87
2022-09-23T14:57:33.399Z,38.08
2022-09-23T14:58:51.015Z,37.25
2022-09-23T15:00:21.956Z,37.52
2022-09-23T15:01:37.417Z,37.21
2022-09-23T15:02:47.271Z,36.94
2022-09-23T15:03:56.729Z,37.54
2022-09-23T15:05:21.756Z,37.74
2022-09-23T15:06:29.595Z,38.13
2022-09-23T15:07:40.326Z,37.91
2022-09-23T15:08:49.473Z,38.27
2022-09-23T15:09:58.347Z,37.33
2022-09-23T15:11:08.388Z,36.08
2022-09-23T15:12:22.614Z,35.77
2022-09-23T15:13:35.598Z,35.24
2022-09-23T15:14:49.279Z,34.90
2022-09-23T15:15:58.233Z,34.88
2022-09-23T15:17:35.276Z,34.40
2022-09-23T15:18:47.602Z,33.75
2022-09-23T15:20:10.343Z,33.56
2022-09-23T15:21:19.867Z,33.17
2022-09-23T15:22:29.346Z,33.09
2022-09-23T15:23:51.385Z,32.84
2022-09-23T15:25:21.634Z,32.83
2022-09-23T15:26:51.314Z,32.68
2022-09-23T15:28:15.988Z,32.47
2022-09-23T15:29:25.672Z,32.08
2022-09-23T15:30:34.531Z,31.36
2022-09-23T15:31:42.525Z,31.17
2022-09-23T15:32:53.556Z,31.44
2022-09-23T15:34:02.755Z,30.80
2022-09-23T15:35:17.549Z,30.54
2022-09-23T15:36:29.930Z,30.09
2022-09-23T15:37:38.689Z,29.15
2022-09-23T15:38:46.919Z,30.08
2022-09-23T15:39:54.961Z,29.38
2022-09-23T15:41:05.376Z,28.61
2022-09-23T15:42:16.233Z,28.55
2022-09-23T15:43:25.858Z,28.07
2022-09-23T15:44:34.969Z,28.68
2022-09-23T15:45:47.900Z,28.56
2022-09-23T15:46:58.422Z,28.25
2022-09-23T15:48:12.639Z,27.60
2022-09-23T15:49:43.579Z,27.61
2022-09-23T15:50:56.199Z,27.28
2022-09-23T15:52:07.135Z,26.69
2022-09-23T15:53:22.239Z,26.88
2022-09-23T15:54:31.415Z,26.88
2022-09-23T15:55:39.888Z,26.47
2022-09-23T15:56:53.236Z,26.79
2022-09-23T15:58:02.426Z,26.44
2022-09-23T15:59:10.456Z,26.29
2022-09-23T16:00:20.145Z,26.07
2022-09-23T16:01:31.593Z,26.04
2022-09-23T16:02:40.335Z,25.56
2022-09-23T16:03:49.183Z,25.35
2022-09-23T16:04:59.142Z,25.05
2022-09-23T16:06:09.150Z,25.06
2022-09-23T16:07:18.537Z,24.93
2022-09-23T16:08:30.251Z,25.09
2022-09-23T16:09:39.895Z,25.34
2022-09-23T16:10:49.667Z,25.16
2022-09-23T16:11:59.138Z,25.17
2022-09-23T16:13:14.451Z,25.25
2022-09-23T16:14:22.357Z,25.43
2022-09-23T16:15:36.833Z,25.26
2022-09-23T16:16:49.108Z,25.89
2022-09-23T16:17:58.188Z,25.45
2022-09-23T16:19:08.136Z,25.96
2022-09-23T16:20:19.978Z,25.61
2022-09-23T16:21:28.497Z,25.51
2022-09-23T16:22:37.553Z,25.48
2022-09-23T16:23:51.027Z,26.04
2022-09-23T16:25:00.868Z,25.69
2022-09-23T16:26:28.408Z,25.41
2022-09-23T16:27:38.567Z,25.49
2022-09-23T16:28:48.371Z,25.66
2022-09-23T16:30:00.179Z,24.99